Time;durP1;ratioP1;P1;durP2;ratioP2;P2;SDS_P1;SDS_P2;PMS_P1;PMS_P2;Temp;Humidity;BMP_temperature;BMP_pressure;BME280_temperature;BME280_humidity;BME280_pressure;Samples;Min_cycle;Max_cycle;Signal;HPM_P1;HPM_P2
2022/11/20 00:01:32;;;;;;;26.98;15.90;;;;;;;;;;5116142;28;20197;-66
2022/11/20 00:03:59;;;;;;;25.42;15.63;;;;;;;;;;5116981;28;20200;-66
2022/11/20 00:06:27;;;;;;;25.85;14.75;;;;;;;;;;5116646;28;20551;-65
2022/11/20 00:08:56;;;;;;;22.42;16.20;;;;;;;;;;5116559;28;20193;-66
2022/11/20 00:11:24;;;;;;;22.33;15.73;;;;;;;;;;5115958;28;20317;-66
2022/11/20 00:13:54;;;;;;;27.10;15.90;;;;;;;;;;5116323;28;20212;-66
2022/11/20 00:16:23;;;;;;;22.70;15.73;;;;;;;;;;5116489;28;20549;-66
2022/11/20 00:18:50;;;;;;;21.77;15.52;;;;;;;;;;5116628;28;20193;-65
2022/11/20 00:21:18;;;;;;;21.25;15.57;;;;;;;;;;5116262;28;20197;-66
2022/11/20 00:23:46;;;;;;;22.23;14.45;;;;;;;;;;5116963;28;20201;-65
2022/11/20 00:26:14;;;;;;;22.98;15.38;;;;;;;;;;5116172;28;20283;-65
2022/11/20 00:28:41;;;;;;;18.95;14.27;;;;;;;;;;5116213;28;20197;-66
2022/11/20 00:31:09;;;;;;;22.70;14.85;;;;;;;;;;5115777;28;20199;-66
2022/11/20 00:33:37;;;;;;;24.80;15.32;;;;;;;;;;5115810;28;20290;-66
2022/11/20 00:36:05;;;;;;;18.58;14.75;;;;;;;;;;5115940;28;20222;-66
2022/11/20 00:38:32;;;;;;;22.17;14.25;;;;;;;;;;5116135;28;20197;-66
2022/11/20 00:41:00;;;;;;;20.60;14.55;;;;;;;;;;5115568;28;20691;-66
2022/11/20 00:43:28;;;;;;;23.63;14.30;;;;;;;;;;5116364;28;20235;-65
2022/11/20 00:45:58;;;;;;;25.45;14.93;;;;;;;;;;5115845;28;20203;-65
2022/11/20 00:48:25;;;;;;;25.10;14.93;;;;;;;;;;5116089;28;20185;-65
2022/11/20 00:50:54;;;;;;;27.25;16.20;;;;;;;;;;5115956;28;20196;-66
2022/11/20 00:53:21;;;;;;;24.60;16.67;;;;;;;;;;5115860;28;20528;-66
2022/11/20 00:55:54;;;;;;;22.55;15.35;;;;;;;;;;5115250;28;20197;-65
2022/11/20 00:58:21;;;;;;;20.48;15.40;;;;;;;;;;5115673;28;20181;-66
2022/11/20 01:00:49;;;;;;;22.63;14.98;;;;;;;;;;5115146;28;20192;-66
2022/11/20 01:03:17;;;;;;;24.98;16.27;;;;;;;;;;5115309;28;20646;-65
2022/11/20 01:05:44;;;;;;;21.95;14.80;;;;;;;;;;5115390;28;20216;-66
2022/11/20 01:08:12;;;;;;;25.10;16.70;;;;;;;;;;5115475;28;20270;-66
2022/11/20 01:10:39;;;;;;;21.80;16.05;;;;;;;;;;5114959;28;20194;-66
2022/11/20 01:15:52;;;;;;;23.85;16.20;;;;;;;;;;5115467;28;20180;-66
2022/11/20 01:18:19;;;;;;;26.83;17.30;;;;;;;;;;5115132;28;20193;-66
2022/11/20 01:20:46;;;;;;;23.35;16.38;;;;;;;;;;5115320;28;20287;-67
2022/11/20 01:23:14;;;;;;;25.52;17.80;;;;;;;;;;5114881;28;20196;-66
2022/11/20 01:25:42;;;;;;;25.90;15.82;;;;;;;;;;5114477;28;20207;-67
2022/11/20 01:28:09;;;;;;;26.23;17.40;;;;;;;;;;5115145;28;20619;-66
2022/11/20 01:30:36;;;;;;;24.20;16.77;;;;;;;;;;5115530;28;20292;-67
2022/11/20 01:33:03;;;;;;;24.40;16.02;;;;;;;;;;5115292;28;20195;-66
2022/11/20 01:35:30;;;;;;;32.20;18.67;;;;;;;;;;5115097;28;20217;-67
2022/11/20 01:37:57;;;;;;;23.60;16.88;;;;;;;;;;5114857;28;20189;-67
2022/11/20 01:40:26;;;;;;;24.95;16.30;;;;;;;;;;5114563;28;20193;-66
2022/11/20 01:45:57;;;;;;;27.25;17.23;;;;;;;;;;5114459;28;20268;-67
2022/11/20 01:48:26;;;;;;;29.05;17.13;;;;;;;;;;5114950;28;20569;-66
2022/11/20 01:50:54;;;;;;;25.38;16.42;;;;;;;;;;5114289;28;20207;-66
2022/11/20 01:53:26;;;;;;;25.00;15.90;;;;;;;;;;5114350;28;20193;-66
2022/11/20 01:55:56;;;;;;;25.67;18.25;;;;;;;;;;5114073;28;20211;-67
2022/11/20 01:58:27;;;;;;;26.52;17.15;;;;;;;;;;5114941;28;20541;-66
2022/11/20 02:00:54;;;;;;;23.08;16.70;;;;;;;;;;5114719;28;20180;-67
2022/11/20 02:03:22;;;;;;;28.17;16.45;;;;;;;;;;5114488;28;20551;-66
2022/11/20 02:05:51;;;;;;;24.25;16.80;;;;;;;;;;5114741;28;20572;-66
2022/11/20 02:08:19;;;;;;;22.10;16.02;;;;;;;;;;5114273;28;20558;-66
2022/11/20 02:10:46;;;;;;;30.25;16.60;;;;;;;;;;5114092;28;20800;-66
2022/11/20 02:16:00;;;;;;;40.40;21.60;;;;;;;;;;5114171;28;20208;-66
2022/11/20 02:18:27;;;;;;;42.90;23.45;;;;;;;;;;5113796;28;20287;-66
2022/11/20 02:20:55;;;;;;;34.65;21.15;;;;;;;;;;5114613;28;20273;-66
2022/11/20 02:23:25;;;;;;;41.60;23.20;;;;;;;;;;5113716;28;20646;-66
2022/11/20 02:25:54;;;;;;;31.70;20.60;;;;;;;;;;5113727;28;20605;-66
2022/11/20 02:28:21;;;;;;;35.47;22.27;;;;;;;;;;5113944;28;20189;-66
2022/11/20 02:30:48;;;;;;;31.38;20.95;;;;;;;;;;5113661;28;20199;-66
2022/11/20 02:33:15;;;;;;;32.42;20.40;;;;;;;;;;5113534;28;20197;-66
2022/11/20 02:35:46;;;;;;;36.13;18.67;;;;;;;;;;5113751;28;20315;-66
2022/11/20 02:38:14;;;;;;;30.40;20.27;;;;;;;;;;5113502;28;20188;-66
2022/11/20 02:40:41;;;;;;;36.70;21.52;;;;;;;;;;5113766;28;20558;-66
2022/11/20 02:43:10;;;;;;;34.10;21.52;;;;;;;;;;5113275;28;20216;-66
2022/11/20 02:45:37;;;;;;;34.28;20.42;;;;;;;;;;5113760;28;20199;-67
2022/11/20 02:48:04;;;;;;;34.22;22.45;;;;;;;;;;5113357;28;20672;-66
2022/11/20 02:50:31;;;;;;;31.95;20.90;;;;;;;;;;5114039;28;20195;-66
2022/11/20 02:52:59;;;;;;;41.67;21.70;;;;;;;;;;5113708;28;20610;-65
2022/11/20 02:55:26;;;;;;;33.60;20.70;;;;;;;;;;5113720;28;20243;-66
2022/11/20 02:57:53;;;;;;;35.88;23.00;;;;;;;;;;5113769;28;20193;-66
2022/11/20 03:00:22;;;;;;;29.23;19.23;;;;;;;;;;5113687;28;20189;-66
2022/11/20 03:02:49;;;;;;;33.60;20.92;;;;;;;;;;5113527;28;20197;-65
2022/11/20 03:05:16;;;;;;;34.03;19.88;;;;;;;;;;5113278;28;20200;-67
2022/11/20 03:07:45;;;;;;;37.55;20.98;;;;;;;;;;5114057;28;20498;-66
2022/11/20 03:10:12;;;;;;;30.75;19.38;;;;;;;;;;5114439;28;20189;-67
2022/11/20 03:12:39;;;;;;;36.30;23.75;;;;;;;;;;5113790;28;20197;-66
2022/11/20 03:15:07;;;;;;;36.92;22.92;;;;;;;;;;5113504;28;20265;-66
2022/11/20 03:17:35;;;;;;;29.15;20.92;;;;;;;;;;5113422;28;20199;-66
2022/11/20 03:20:02;;;;;;;31.42;22.75;;;;;;;;;;5113181;28;20207;-67
2022/11/20 03:22:30;;;;;;;29.65;19.13;;;;;;;;;;5113906;28;20551;-66
2022/11/20 03:24:58;;;;;;;30.05;20.88;;;;;;;;;;5113709;28;20227;-66
2022/11/20 03:27:25;;;;;;;30.33;20.33;;;;;;;;;;5113925;28;20197;-66
2022/11/20 03:29:52;;;;;;;27.70;18.70;;;;;;;;;;5113431;28;20189;-67
2022/11/20 03:32:19;;;;;;;28.30;19.30;;;;;;;;;;5113664;28;20194;-67
2022/11/20 03:34:48;;;;;;;33.95;19.98;;;;;;;;;;5113344;28;20227;-65
2022/11/20 03:37:15;;;;;;;32.42;18.75;;;;;;;;;;5113324;28;20207;-71
2022/11/20 03:39:42;;;;;;;30.25;19.85;;;;;;;;;;5113365;28;20195;-67
2022/11/20 03:42:44;;;;;;;34.03;20.55;;;;;;;;;;5113415;28;20227;-67
2022/11/20 03:44:57;;;;;;;30.02;19.70;;;;;;;;;;5112898;28;20250;-66
2022/11/20 03:47:25;;;;;;;28.10;19.77;;;;;;;;;;5114982;28;20198;-67
2022/11/20 03:49:53;;;;;;;30.83;20.25;;;;;;;;;;5117064;28;20199;-65
2022/11/20 03:52:20;;;;;;;33.90;21.80;;;;;;;;;;5114867;28;20189;-66
2022/11/20 03:54:47;;;;;;;33.47;20.75;;;;;;;;;;5116718;28;20217;-66
2022/11/20 03:57:15;;;;;;;41.58;21.60;;;;;;;;;;5116653;28;20200;-66
2022/11/20 03:59:42;;;;;;;29.70;18.65;;;;;;;;;;5116764;28;20196;-66
2022/11/20 04:02:09;;;;;;;28.02;19.20;;;;;;;;;;5116644;28;20283;-66
2022/11/20 04:04:36;;;;;;;45.88;23.65;;;;;;;;;;5116190;28;20203;-66
2022/11/20 04:07:05;;;;;;;39.72;23.17;;;;;;;;;;5116697;28;20660;-66
2022/11/20 04:09:32;;;;;;;50.47;28.08;;;;;;;;;;5116520;28;20193;-66
2022/11/20 04:11:59;;;;;;;47.63;25.80;;;;;;;;;;5116604;28;20195;-66
2022/11/20 04:14:26;;;;;;;43.63;26.42;;;;;;;;;;5116070;28;20204;-66
2022/11/20 04:16:54;;;;;;;45.17;25.10;;;;;;;;;;5116636;28;20643;-66
2022/11/20 04:19:21;;;;;;;53.85;26.60;;;;;;;;;;5116410;28;20283;-66
2022/11/20 04:21:48;;;;;;;44.72;26.65;;;;;;;;;;5115992;28;20193;-66
2022/11/20 04:24:16;;;;;;;54.70;28.10;;;;;;;;;;5115785;28;20683;-66
2022/11/20 04:26:44;;;;;;;52.00;27.75;;;;;;;;;;5115886;28;20642;-66
2022/11/20 04:29:12;;;;;;;54.10;31.17;;;;;;;;;;5116063;28;20195;-67
2022/11/20 04:31:39;;;;;;;55.65;29.80;;;;;;;;;;5116110;28;20193;-66
2022/11/20 04:34:07;;;;;;;48.90;28.35;;;;;;;;;;5115576;28;20193;-67
2022/11/20 04:36:34;;;;;;;47.55;29.10;;;;;;;;;;5115893;28;20217;-67
2022/11/20 04:39:03;;;;;;;47.20;25.95;;;;;;;;;;5115897;28;20189;-66
2022/11/20 04:41:32;;;;;;;40.17;24.27;;;;;;;;;;5115419;28;20193;-67
2022/11/20 04:44:02;;;;;;;41.60;22.73;;;;;;;;;;5116039;28;20228;-67
2022/11/20 04:46:29;;;;;;;35.60;23.58;;;;;;;;;;5115934;28;20653;-67
2022/11/20 04:48:56;;;;;;;31.02;21.30;;;;;;;;;;5115579;28;20199;-67
2022/11/20 04:51:24;;;;;;;35.13;21.00;;;;;;;;;;5115160;28;20565;-67
2022/11/20 04:53:51;;;;;;;33.35;21.17;;;;;;;;;;5115949;28;20611;-67
2022/11/20 04:56:18;;;;;;;29.85;21.13;;;;;;;;;;5115926;28;20213;-67
2022/11/20 04:58:47;;;;;;;28.98;19.20;;;;;;;;;;5114070;28;20203;-67
2022/11/20 05:01:15;;;;;;;34.95;20.60;;;;;;;;;;5115510;28;20189;-67
2022/11/20 05:03:43;;;;;;;33.40;21.52;;;;;;;;;;5115401;28;20215;-67
2022/11/20 05:06:10;;;;;;;36.40;20.55;;;;;;;;;;5115211;28;20201;-66
2022/11/20 05:08:38;;;;;;;35.05;21.73;;;;;;;;;;5115184;28;20189;-67
2022/11/20 05:11:05;;;;;;;31.23;20.42;;;;;;;;;;5114882;28;20676;-67
2022/11/20 05:13:33;;;;;;;34.58;23.98;;;;;;;;;;5115198;28;20189;-67
2022/11/20 05:16:04;;;;;;;34.03;20.92;;;;;;;;;;5115053;28;20265;-67
2022/11/20 05:18:31;;;;;;;29.88;20.35;;;;;;;;;;5114849;28;20184;-67
2022/11/20 05:20:58;;;;;;;28.65;19.63;;;;;;;;;;5115040;28;20495;-67
2022/11/20 05:23:25;;;;;;;29.27;20.02;;;;;;;;;;5114637;28;20193;-67
2022/11/20 05:25:53;;;;;;;29.63;19.40;;;;;;;;;;5114752;28;20196;-67
2022/11/20 05:28:21;;;;;;;39.58;23.05;;;;;;;;;;5115171;28;20571;-67
2022/11/20 05:30:48;;;;;;;35.22;23.08;;;;;;;;;;5114839;28;20280;-67
2022/11/20 05:33:16;;;;;;;46.10;24.38;;;;;;;;;;5114591;28;20201;-66
2022/11/20 05:35:43;;;;;;;51.58;26.70;;;;;;;;;;5114351;28;20213;-67
2022/11/20 05:38:11;;;;;;;50.10;25.63;;;;;;;;;;5114378;28;20646;-67
2022/11/20 05:40:38;;;;;;;48.70;23.83;;;;;;;;;;5114512;28;20197;-67
2022/11/20 05:43:05;;;;;;;45.08;24.85;;;;;;;;;;5114673;28;20233;-67
2022/11/20 05:45:33;;;;;;;60.47;27.52;;;;;;;;;;5114178;28;20202;-67
2022/11/20 05:48:00;;;;;;;61.25;26.10;;;;;;;;;;5114932;28;20196;-67
2022/11/20 05:50:29;;;;;;;59.65;27.60;;;;;;;;;;5114093;28;20193;-67
2022/11/20 05:52:56;;;;;;;65.25;29.15;;;;;;;;;;5114328;28;20193;-67
2022/11/20 05:55:23;;;;;;;68.00;29.65;;;;;;;;;;5113897;28;20223;-67
2022/11/20 05:57:51;;;;;;;62.20;28.67;;;;;;;;;;5114535;28;20605;-67
2022/11/20 06:00:18;;;;;;;62.00;25.48;;;;;;;;;;5114333;28;20199;-66
2022/11/20 06:02:45;;;;;;;68.07;25.55;;;;;;;;;;5114295;28;20234;-67
2022/11/20 06:05:12;;;;;;;59.72;27.80;;;;;;;;;;5114091;28;20196;-67
2022/11/20 06:07:41;;;;;;;69.80;27.83;;;;;;;;;;5114235;28;20193;-67
2022/11/20 06:10:08;;;;;;;79.80;28.60;;;;;;;;;;5113534;28;20662;-67
2022/11/20 06:12:35;;;;;;;57.22;26.42;;;;;;;;;;5114828;28;20193;-65
2022/11/20 06:15:03;;;;;;;63.92;29.05;;;;;;;;;;5113618;28;20288;-67
2022/11/20 06:17:30;;;;;;;79.85;28.15;;;;;;;;;;5113762;28;20556;-67
2022/11/20 06:19:57;;;;;;;76.05;28.33;;;;;;;;;;5113954;28;20192;-67
2022/11/20 06:22:24;;;;;;;69.03;28.67;;;;;;;;;;5113915;28;20193;-67
2022/11/20 06:24:53;;;;;;;57.83;28.23;;;;;;;;;;5113917;28;20192;-67
2022/11/20 06:27:20;;;;;;;53.65;25.63;;;;;;;;;;5113505;28;20196;-67
2022/11/20 06:29:47;;;;;;;68.75;28.05;;;;;;;;;;5114165;28;20555;-67
2022/11/20 06:32:14;;;;;;;62.35;30.42;;;;;;;;;;5116366;28;20638;-67
2022/11/20 06:34:41;;;;;;;72.93;31.00;;;;;;;;;;5114447;28;20562;-67
2022/11/20 06:37:08;;;;;;;67.82;29.65;;;;;;;;;;5113990;28;20568;-67
2022/11/20 06:39:36;;;;;;;72.72;30.67;;;;;;;;;;5113981;28;20201;-67
2022/11/20 06:42:04;;;;;;;87.38;30.13;;;;;;;;;;5113894;28;20231;-67
2022/11/20 06:44:31;;;;;;;105.13;29.45;;;;;;;;;;5113918;28;20193;-67
2022/11/20 06:46:58;;;;;;;108.03;34.10;;;;;;;;;;5113401;28;20196;-67
2022/11/20 06:49:26;;;;;;;73.55;30.88;;;;;;;;;;5113825;28;20566;-67
2022/11/20 06:51:53;;;;;;;97.15;32.53;;;;;;;;;;5113712;28;20196;-67
2022/11/20 06:54:20;;;;;;;126.72;35.47;;;;;;;;;;5114614;28;20192;-67
2022/11/20 06:56:48;;;;;;;81.00;32.58;;;;;;;;;;5113082;28;20731;-67
2022/11/20 06:59:17;;;;;;;84.88;32.55;;;;;;;;;;5114126;28;20196;-67
2022/11/20 07:01:44;;;;;;;82.90;33.45;;;;;;;;;;5113767;28;20199;-67
2022/11/20 07:04:11;;;;;;;77.03;34.05;;;;;;;;;;5113762;28;20199;-67
2022/11/20 07:06:38;;;;;;;79.85;31.98;;;;;;;;;;5113366;28;20200;-67
2022/11/20 07:09:05;;;;;;;71.72;31.52;;;;;;;;;;5113330;28;20658;-68
2022/11/20 07:11:32;;;;;;;76.18;32.80;;;;;;;;;;5113243;28;20562;-67
2022/11/20 07:14:00;;;;;;;77.57;34.20;;;;;;;;;;5113639;28;20271;-67
2022/11/20 07:16:28;;;;;;;100.45;34.72;;;;;;;;;;5113381;28;20223;-68
2022/11/20 07:18:55;;;;;;;97.03;34.83;;;;;;;;;;5113251;28;20203;-68
2022/11/20 07:21:23;;;;;;;76.25;30.88;;;;;;;;;;5113491;28;20283;-67
2022/11/20 07:23:50;;;;;;;81.78;34.90;;;;;;;;;;5117659;28;20195;-67
2022/11/20 07:26:17;;;;;;;90.00;31.50;;;;;;;;;;5117376;28;20193;-67
2022/11/20 07:28:45;;;;;;;84.03;28.50;;;;;;;;;;5117373;28;20287;-67
2022/11/20 07:31:13;;;;;;;81.00;25.40;;;;;;;;;;5116512;28;20200;-68
2022/11/20 07:33:41;;;;;;;121.47;26.65;;;;;;;;;;5116531;28;20200;-68
2022/11/20 07:36:09;;;;;;;99.47;24.23;;;;;;;;;;5116913;28;20539;-67
2022/11/20 07:38:36;;;;;;;98.20;26.67;;;;;;;;;;5116998;28;20340;-68
2022/11/20 07:41:03;;;;;;;75.82;24.10;;;;;;;;;;5117123;28;20205;-67
2022/11/20 07:43:30;;;;;;;67.50;25.58;;;;;;;;;;5117196;28;20221;-68
2022/11/20 07:45:58;;;;;;;74.63;20.80;;;;;;;;;;5117433;28;20235;-67
2022/11/20 07:48:25;;;;;;;62.40;22.27;;;;;;;;;;5117051;28;20189;-68
2022/11/20 07:51:06;;;;;;;69.60;24.58;;;;;;;;;;5117115;28;20188;-67
2022/11/20 07:53:33;;;;;;;60.88;21.48;;;;;;;;;;5116742;28;20283;-67
2022/11/20 07:56:01;;;;;;;56.75;23.15;;;;;;;;;;5116317;28;20213;-67
2022/11/20 07:58:30;;;;;;;45.53;20.75;;;;;;;;;;5117033;28;20197;-67
2022/11/20 08:00:57;;;;;;;51.10;23.25;;;;;;;;;;5116799;28;20290;-67
2022/11/20 08:03:24;;;;;;;49.60;20.13;;;;;;;;;;5116067;28;20279;-67
2022/11/20 08:05:52;;;;;;;51.38;21.52;;;;;;;;;;5116792;28;20205;-67
2022/11/20 08:08:20;;;;;;;51.63;25.10;;;;;;;;;;5116182;28;20291;-67
2022/11/20 08:10:48;;;;;;;58.72;24.08;;;;;;;;;;5116424;28;20684;-66
2022/11/20 08:16:00;;;;;;;57.10;24.58;;;;;;;;;;5116129;28;20199;-67
2022/11/20 08:18:27;;;;;;;53.40;21.63;;;;;;;;;;5116198;28;20233;-67
2022/11/20 08:20:54;;;;;;;58.80;22.52;;;;;;;;;;5116338;28;20196;-66
2022/11/20 08:23:24;;;;;;;48.97;22.27;;;;;;;;;;5116157;28;20199;-67
2022/11/20 08:25:52;;;;;;;47.55;21.25;;;;;;;;;;5115816;28;20192;-67
2022/11/20 08:28:19;;;;;;;56.08;23.20;;;;;;;;;;5115717;28;20190;-67
2022/11/20 08:30:46;;;;;;;48.00;22.20;;;;;;;;;;5115819;28;20204;-64
2022/11/20 08:33:13;;;;;;;48.75;24.77;;;;;;;;;;5115357;28;20695;-67
2022/11/20 08:35:40;;;;;;;41.63;23.27;;;;;;;;;;5115825;28;20197;-68
2022/11/20 08:38:08;;;;;;;51.60;25.45;;;;;;;;;;5115810;28;20197;-67
2022/11/20 08:40:36;;;;;;;41.92;22.77;;;;;;;;;;5115798;28;20267;-68
2022/11/20 08:43:04;;;;;;;53.63;24.58;;;;;;;;;;5115421;28;20723;-67
2022/11/20 08:45:31;;;;;;;48.88;25.85;;;;;;;;;;5115394;28;20199;-68
2022/11/20 08:48:01;;;;;;;55.30;26.02;;;;;;;;;;5115371;28;20287;-68
2022/11/20 08:50:31;;;;;;;47.38;24.35;;;;;;;;;;5115246;28;20189;-67
2022/11/20 08:53:03;;;;;;;49.50;25.02;;;;;;;;;;5115261;28;20197;-68
2022/11/20 08:55:30;;;;;;;51.30;25.45;;;;;;;;;;5114556;28;20227;-67
2022/11/20 08:57:59;;;;;;;51.17;27.33;;;;;;;;;;5115363;28;20217;-68
2022/11/20 09:00:26;;;;;;;45.95;24.13;;;;;;;;;;5115731;28;20677;-67
2022/11/20 09:02:53;;;;;;;48.58;26.23;;;;;;;;;;5115526;28;20283;-68
2022/11/20 09:05:20;;;;;;;52.65;28.52;;;;;;;;;;5115401;28;20626;-68
2022/11/20 09:07:47;;;;;;;43.92;24.38;;;;;;;;;;5115552;28;20197;-67
2022/11/20 09:10:15;;;;;;;41.92;24.55;;;;;;;;;;5115245;28;20287;-68
2022/11/20 09:12:42;;;;;;;49.70;27.77;;;;;;;;;;5114685;28;20287;-67
2022/11/20 09:15:11;;;;;;;48.90;24.70;;;;;;;;;;5115054;28;20215;-67
2022/11/20 09:17:38;;;;;;;52.13;23.45;;;;;;;;;;5115154;28;20603;-68
2022/11/20 09:20:06;;;;;;;43.70;25.58;;;;;;;;;;5115033;28;20545;-67
2022/11/20 09:22:33;;;;;;;49.70;26.85;;;;;;;;;;5114817;28;20188;-67
2022/11/20 09:25:00;;;;;;;46.15;27.15;;;;;;;;;;5114847;28;20204;-67
2022/11/20 09:27:28;;;;;;;56.35;26.63;;;;;;;;;;5114704;28;20194;-68
2022/11/20 09:29:55;;;;;;;48.47;27.60;;;;;;;;;;5114589;28;20202;-68
2022/11/20 09:32:23;;;;;;;48.83;27.20;;;;;;;;;;5114400;28;20676;-67
2022/11/20 09:34:50;;;;;;;51.70;25.50;;;;;;;;;;5114998;28;20215;-68
2022/11/20 09:37:18;;;;;;;45.00;25.42;;;;;;;;;;5114198;28;20219;-67
2022/11/20 09:39:45;;;;;;;56.42;28.92;;;;;;;;;;5114592;28;20677;-68
2022/11/20 09:42:19;;;;;;;48.55;25.92;;;;;;;;;;5114694;28;20307;-67
2022/11/20 09:44:51;;;;;;;51.03;26.35;;;;;;;;;;5114359;28;20278;-67
2022/11/20 09:47:22;;;;;;;48.60;28.77;;;;;;;;;;5114436;28;20519;-67
2022/11/20 09:50:00;;;;;;;54.42;28.17;;;;;;;;;;5114922;28;20192;-67
2022/11/20 09:52:32;;;;;;;46.53;26.10;;;;;;;;;;5114584;28;20196;-68
2022/11/20 09:54:59;;;;;;;46.35;26.55;;;;;;;;;;5114584;28;20209;-68
2022/11/20 09:57:30;;;;;;;48.00;27.48;;;;;;;;;;5114147;28;20601;-68
2022/11/20 09:59:58;;;;;;;51.65;28.63;;;;;;;;;;5114144;28;20634;-67
2022/11/20 10:02:29;;;;;;;51.33;29.35;;;;;;;;;;5114611;28;20202;-68
2022/11/20 10:05:01;;;;;;;48.35;27.48;;;;;;;;;;5114317;28;20589;-68
2022/11/20 10:07:31;;;;;;;46.28;24.75;;;;;;;;;;5114238;28;20197;-67
2022/11/20 10:09:59;;;;;;;48.03;29.05;;;;;;;;;;5113812;28;20198;-67
2022/11/20 10:12:29;;;;;;;47.33;26.33;;;;;;;;;;5114427;28;20200;-67
2022/11/20 10:15:07;;;;;;;44.45;28.33;;;;;;;;;;5114104;28;20182;-67
2022/11/20 10:17:50;;;;;;;48.05;26.98;;;;;;;;;;5113822;28;20207;-68
2022/11/20 10:20:22;;;;;;;57.13;31.13;;;;;;;;;;5113825;28;20654;-67
2022/11/20 10:22:55;;;;;;;41.28;26.15;;;;;;;;;;5113903;28;20653;-68
2022/11/20 10:25:24;;;;;;;41.17;27.38;;;;;;;;;;5113772;28;20185;-66
2022/11/20 10:27:58;;;;;;;44.17;27.88;;;;;;;;;;5114029;28;20245;-66
2022/11/20 10:30:25;;;;;;;41.95;24.85;;;;;;;;;;5114055;28;20544;-65
2022/11/20 10:32:54;;;;;;;38.83;24.08;;;;;;;;;;5114109;28;20222;-65
2022/11/20 10:35:25;;;;;;;31.02;19.98;;;;;;;;;;5113567;28;20201;-65
2022/11/20 10:38:01;;;;;;;39.45;23.95;;;;;;;;;;5114025;28;20269;-66
2022/11/20 10:40:32;;;;;;;36.50;23.23;;;;;;;;;;5113671;28;20212;-65
2022/11/20 10:43:02;;;;;;;39.25;23.15;;;;;;;;;;5113528;28;20235;-65
2022/11/20 10:45:34;;;;;;;37.08;24.25;;;;;;;;;;5113600;28;20532;-65
2022/11/20 10:48:09;;;;;;;36.78;22.33;;;;;;;;;;5113831;28;20186;-65
2022/11/20 10:50:41;;;;;;;34.88;22.65;;;;;;;;;;5113658;28;20182;-66
2022/11/20 10:53:16;;;;;;;34.50;23.42;;;;;;;;;;5114096;28;20183;-66
2022/11/20 10:55:46;;;;;;;35.58;21.90;;;;;;;;;;5114237;28;20185;-66
2022/11/20 10:58:15;;;;;;;33.58;25.55;;;;;;;;;;5118058;28;20236;-67
2022/11/20 11:00:43;;;;;;;38.00;23.80;;;;;;;;;;5117828;28;20194;-65
2022/11/20 11:03:25;;;;;;;30.83;21.90;;;;;;;;;;5118355;28;20205;-66
2022/11/20 11:05:56;;;;;;;33.03;22.98;;;;;;;;;;5118230;28;20274;-66
2022/11/20 11:08:24;;;;;;;33.33;20.50;;;;;;;;;;5117726;28;20197;-66
2022/11/20 11:10:54;;;;;;;34.60;24.10;;;;;;;;;;5117181;28;20195;-66
2022/11/20 11:13:22;;;;;;;32.95;21.55;;;;;;;;;;5117629;28;20195;-66
2022/11/20 11:15:49;;;;;;;42.15;28.77;;;;;;;;;;5117462;28;20198;-66
2022/11/20 11:18:24;;;;;;;29.23;20.02;;;;;;;;;;5117061;28;20220;-66
2022/11/20 11:20:54;;;;;;;26.95;19.13;;;;;;;;;;5117187;28;20187;-66
2022/11/20 11:23:30;;;;;;;33.13;20.60;;;;;;;;;;5117467;28;20202;-66
2022/11/20 11:25:59;;;;;;;29.20;19.67;;;;;;;;;;5117391;28;20537;-65
2022/11/20 11:28:27;;;;;;;25.10;18.48;;;;;;;;;;5117307;28;20610;-65
2022/11/20 11:30:55;;;;;;;30.15;19.77;;;;;;;;;;5117005;28;20234;-65
2022/11/20 11:33:23;;;;;;;21.15;14.93;;;;;;;;;;5118078;28;20191;-65
2022/11/20 11:35:53;;;;;;;21.45;16.85;;;;;;;;;;5117121;28;20637;-66
2022/11/20 11:38:23;;;;;;;22.48;15.57;;;;;;;;;;5116841;28;20225;-66
2022/11/20 11:40:51;;;;;;;21.52;14.90;;;;;;;;;;5117054;28;20588;-66
2022/11/20 11:46:02;;;;;;;21.60;15.48;;;;;;;;;;5116548;28;20198;-65
2022/11/20 11:48:29;;;;;;;18.50;13.13;;;;;;;;;;5116684;28;20669;-65
2022/11/20 11:50:56;;;;;;;17.48;13.52;;;;;;;;;;5116413;28;20199;-65
2022/11/20 11:53:28;;;;;;;18.80;14.20;;;;;;;;;;5116220;28;20190;-66
2022/11/20 11:55:58;;;;;;;18.73;12.75;;;;;;;;;;5116848;28;20191;-66
2022/11/20 11:58:33;;;;;;;17.42;13.20;;;;;;;;;;5116711;28;20556;-65
2022/11/20 12:01:03;;;;;;;15.27;11.77;;;;;;;;;;5116793;28;20276;-65
2022/11/20 12:03:36;;;;;;;15.52;11.70;;;;;;;;;;5116719;28;20209;-65
2022/11/20 12:06:07;;;;;;;15.98;12.57;;;;;;;;;;5116373;28;20185;-65
2022/11/20 12:08:44;;;;;;;14.73;10.77;;;;;;;;;;5115976;28;20213;-65
2022/11/20 12:11:14;;;;;;;13.85;11.30;;;;;;;;;;5116298;28;20635;-65
2022/11/20 12:13:44;;;;;;;15.68;11.13;;;;;;;;;;5116646;28;20617;-65
2022/11/20 12:16:13;;;;;;;12.60;10.55;;;;;;;;;;5115905;28;20211;-65
2022/11/20 12:18:40;;;;;;;16.38;10.88;;;;;;;;;;5116088;28;20213;-65
2022/11/20 12:21:12;;;;;;;19.40;11.18;;;;;;;;;;5115931;28;20199;-66
2022/11/20 12:23:45;;;;;;;14.18;10.60;;;;;;;;;;5116403;28;20183;-65
2022/11/20 12:26:16;;;;;;;15.82;11.88;;;;;;;;;;5115764;28;20186;-65
2022/11/20 12:28:50;;;;;;;17.13;10.57;;;;;;;;;;5116018;28;20197;-65
2022/11/20 12:31:25;;;;;;;15.27;11.35;;;;;;;;;;5115508;28;20184;-65
2022/11/20 12:34:00;;;;;;;13.85;11.52;;;;;;;;;;5115700;28;20181;-66
2022/11/20 12:36:32;;;;;;;13.55;10.35;;;;;;;;;;5115978;28;20265;-66
2022/11/20 12:39:14;;;;;;;12.13;10.10;;;;;;;;;;5115800;28;20205;-66
2022/11/20 12:45:12;;;;;;;18.75;14.55;;;;;;;;;;5115926;28;20235;-66
2022/11/20 12:47:49;;;;;;;18.35;12.25;;;;;;;;;;5115542;28;20202;-65
2022/11/20 12:50:19;;;;;;;19.00;11.63;;;;;;;;;;5116379;28;20202;-65
2022/11/20 12:52:49;;;;;;;18.52;14.80;;;;;;;;;;5115504;28;20200;-65
2022/11/20 12:55:25;;;;;;;18.92;13.23;;;;;;;;;;5115496;28;20204;-65
2022/11/20 12:57:56;;;;;;;16.63;13.50;;;;;;;;;;5116053;28;20211;-65
2022/11/20 13:00:24;;;;;;;21.17;14.45;;;;;;;;;;5115570;28;20188;-66
2022/11/20 13:03:07;;;;;;;21.23;15.25;;;;;;;;;;5115423;28;20202;-65
2022/11/20 13:05:38;;;;;;;21.98;15.20;;;;;;;;;;5115423;28;20589;-65
2022/11/20 13:08:10;;;;;;;20.15;13.52;;;;;;;;;;5115435;28;20283;-66
2022/11/20 13:10:40;;;;;;;24.02;16.30;;;;;;;;;;5114854;28;20192;-65
2022/11/20 13:13:15;;;;;;;19.80;14.10;;;;;;;;;;5115953;28;20188;-65
2022/11/20 13:15:48;;;;;;;24.38;16.58;;;;;;;;;;5114803;28;20274;-65
2022/11/20 13:18:15;;;;;;;20.58;15.77;;;;;;;;;;5114796;28;20310;-66
2022/11/20 13:20:44;;;;;;;27.05;18.77;;;;;;;;;;5113967;28;20196;-65
2022/11/20 13:23:11;;;;;;;27.38;18.65;;;;;;;;;;5115633;28;20199;-66
2022/11/20 13:25:40;;;;;;;41.55;25.92;;;;;;;;;;5114859;28;20291;-65
2022/11/20 13:28:27;;;;;;;33.20;21.80;;;;;;;;;;5115050;28;20200;-66
2022/11/20 13:30:56;;;;;;;35.38;21.40;;;;;;;;;;5114865;28;20183;-65
2022/11/20 13:33:25;;;;;;;28.35;19.30;;;;;;;;;;5114970;28;20286;-66
2022/11/20 13:35:56;;;;;;;30.20;19.60;;;;;;;;;;5114887;28;20202;-65
2022/11/20 13:38:24;;;;;;;36.45;21.50;;;;;;;;;;5114819;28;20214;-66
2022/11/20 13:40:55;;;;;;;36.50;21.63;;;;;;;;;;5114547;28;20222;-65
2022/11/20 13:43:30;;;;;;;33.67;20.45;;;;;;;;;;5114283;28;20231;-66
2022/11/20 13:46:00;;;;;;;43.42;23.85;;;;;;;;;;5114610;28;20225;-66
2022/11/20 13:48:31;;;;;;;44.25;24.73;;;;;;;;;;5115102;28;20293;-66
2022/11/20 13:51:13;;;;;;;40.60;25.00;;;;;;;;;;5114607;28;20203;-65
2022/11/20 13:54:01;;;;;;;40.90;25.05;;;;;;;;;;5112326;28;20280;-65
2022/11/20 13:56:36;;;;;;;34.85;22.73;;;;;;;;;;5109523;28;20197;-65
2022/11/20 13:59:07;;;;;;;36.38;22.02;;;;;;;;;;5114488;28;20212;-65
2022/11/20 14:01:35;;;;;;;31.50;20.77;;;;;;;;;;5114306;28;20181;-66
2022/11/20 14:04:08;;;;;;;36.33;22.42;;;;;;;;;;5112850;28;20547;-65
2022/11/20 14:06:40;;;;;;;29.58;20.23;;;;;;;;;;5114006;28;20182;-65
2022/11/20 14:09:12;;;;;;;34.97;22.33;;;;;;;;;;5114201;28;20196;-65
2022/11/20 14:11:47;;;;;;;33.28;22.50;;;;;;;;;;5113941;28;20209;-65
2022/11/20 14:14:15;;;;;;;33.53;22.15;;;;;;;;;;5114065;28;20183;-64
2022/11/20 14:16:44;;;;;;;33.78;22.85;;;;;;;;;;5113628;28;20200;-71
2022/11/20 14:19:24;;;;;;;30.90;21.92;;;;;;;;;;5113714;28;20264;-71
2022/11/20 14:21:53;;;;;;;39.25;24.90;;;;;;;;;;5113797;28;20236;-65
2022/11/20 14:24:21;;;;;;;31.60;21.88;;;;;;;;;;5113599;28;20289;-65
2022/11/20 14:26:48;;;;;;;32.30;22.88;;;;;;;;;;5113529;28;20190;-64
2022/11/20 14:29:16;;;;;;;35.53;23.33;;;;;;;;;;5113639;28;20298;-68
2022/11/20 14:31:46;;;;;;;35.05;22.30;;;;;;;;;;5112878;28;20650;-68
2022/11/20 14:34:17;;;;;;;38.17;24.65;;;;;;;;;;5113837;28;20195;-68
2022/11/20 14:36:45;;;;;;;35.35;23.75;;;;;;;;;;5113939;28;20189;-67
2022/11/20 14:39:12;;;;;;;37.17;23.25;;;;;;;;;;5113839;28;20574;-67
2022/11/20 14:41:40;;;;;;;35.33;22.30;;;;;;;;;;5113102;28;20217;-68
2022/11/20 14:44:07;;;;;;;31.10;20.58;;;;;;;;;;5114337;28;20188;-65